Friday, February 23, 2018, 7:18 AM EST
Back to Local

KTEB, Teterboro Airport

Location: South Hackensack, NJ, United States Lat: 40.867
Local Time: 7:18 AM EST (12:18 GMT) Lon: -74.05
Time Zone: US/Eastern Elev: 9 ft

Show me the last for .
Show Decoded

2018-02-23 06:51 METAR KTEB 231151Z 08006G14KT 10SM OVC016 03/00 A3063 RMK AO2 SLP373 70028
                 T00280000 10028 20028 55006 $ =
2018-02-23 06:20 METAR KTEB 231120Z VRB05KT 10SM OVC015 03/00 A3064 RMK AO2 T00280000 $ =
2018-02-23 05:51 METAR KTEB 231051Z 06007KT 10SM BKN014 OVC041 03/00 A3063 RMK AO2 SLP373
                 T00280000 $ =
2018-02-23 04:51 METAR KTEB 230951Z 05009KT 10SM OVC013 03/00 A3065 RMK AO2 SLP378 T00280000 $ =
2018-02-23 03:51 METAR KTEB 230851Z 06005KT 10SM OVC012 03/00 A3065 RMK AO2 SLP379 T00280000
                 55006 $ =
2018-02-23 02:51 METAR KTEB 230751Z 07005KT 10SM OVC013 03/00 A3065 RMK AO2 SLP377 T00280000 $ =
2018-02-23 01:51 METAR KTEB 230651Z 07008KT 10SM OVC013 03/01 A3067 RMK AO2 SLP386 T00280006 $ =
2018-02-23 01:13 METAR KTEB 230613Z 06004KT 10SM SCT010 OVC015 03/01 A3067 RMK AO2 T00280006 $ =
2018-02-23 00:51 METAR KTEB 230551Z 06008G16KT 10SM OVC011 03/01 A3067 RMK AO2 SLP386 T00280006
                 10039 20028 51010 $ =
2018-02-22 23:51 METAR KTEB 230451Z 05007KT 10SM OVC014 03/01 A3066 RMK AO2 SLP382 T00330011
                 401440033 $ =
2018-02-22 22:51 METAR KTEB 230351Z 03006KT 10SM BKN014 OVC055 03/01 A3066 RMK AO2 SLP383
                 T00330011 $ =
2018-02-22 22:29 METAR KTEB 230329Z 05005KT 10SM BKN014 OVC055 04/01 A3067 RMK AO2 T00390011 $ =
2018-02-22 21:51 METAR KTEB 230251Z 00000KT 10SM BKN018 OVC060 03/02 A3064 RMK AO2 SLP376
                 T00330017 53003 $ =
2018-02-22 20:51 METAR KTEB 230151Z 01005KT 10SM OVC012 04/01 A3065 RMK AO2 SLP379 T00390011 $ =
2018-02-22 19:51 METAR KTEB 230051Z 03004G17KT 10SM OVC009 04/02 A3062 RMK AO2 SLP368 T00390017 $
                 =
2018-02-22 19:29 METAR KTEB 230029Z 05008KT 10SM BKN010 BKN013 OVC019 04/02 A3062 RMK AO2 CIG
                 007V012 T00390022 $ =
2018-02-22 18:51 METAR KTEB 222351Z 04013G18KT 10SM SCT010 BKN031 OVC065 04/02 A3063 RMK AO2
                 RAE01DZB01E43 SLP373 P0000 60022 T00390022 10072 20033 50012 $ =
2018-02-22 18:30 METAR KTEB 222330Z 05006KT 10SM -DZ BR SCT032 OVC065 04/02 A3065 RMK AO2
                 RAE01DZB01 P0000 T00390017 $ =
2018-02-22 17:58 METAR KTEB 222258Z 04010G17KT 5SM -RA BR BKN010 BKN032 OVC070 03/02 A3064 =
2018-02-22 17:51 METAR KTEB 222251Z 03010KT 2SM -RA BR BKN010 BKN046 OVC070 03/02 A3065 RMK AO2
                 SLP377 P0002 T00330017 $ =
2018-02-22 16:51 METAR KTEB 222151Z 03010G13KT 2SM -RA BR OVC010 03/02 A3063 RMK AO2 SLP371 P0011
                 T00330017 =
2018-02-22 16:27 METAR KTEB 222127Z 03010G17KT 2SM -RA BR OVC008 03/02 A3062 RMK AO2 P0007
                 T00330017 =
2018-02-22 16:09 METAR KTEB 222109Z 02011G20KT 1 1/2SM RA BR OVC005 03/02 A3060 RMK AO2 P0004
                 T00330017 =
2018-02-22 16:00 METAR KTEB 222100Z 02011G20KT 1 3/4SM +RA BR BKN010 BKN020 OVC031 04/02 A3060
                 RMK AO2 P0001 T00390017 =
2018-02-22 15:51 METAR KTEB 222051Z 02009G16KT 4SM RA BR BKN010 BKN026 OVC034 04/02 A3060 RMK AO2
                 SLP361 P0004 60009 T00440022 53018 =
2018-02-22 15:33 METAR KTEB 222033Z 01009KT 4SM -RA BR OVC010 04/02 A3059 RMK AO2 P0003 T00440022
                 =
2018-02-22 14:51 METAR KTEB 221951Z 01010G16KT 2SM +RA BR OVC008 05/03 A3058 RMK AO2 SLP355 P0004
                 T00500028 =
2018-02-22 14:44 METAR KTEB 221944Z 02010G16KT 2SM -RA BR OVC008 05/03 A3058 RMK AO2 P0002
                 T00500028 =
2018-02-22 14:37 METAR KTEB 221937Z 03004KT 8SM -RA OVC011 05/03 A3058 =
2018-02-22 14:20 METAR KTEB 221920Z 04009G18KT 5SM -RA BR BKN025 OVC031 05/03 A3055 RMK AO2 P0001
                 T00500028 =
2018-02-22 13:58 METAR KTEB 221858Z 01007G17KT 5SM -RA BKN032 OVC039 06/02 A3055 =
2018-02-22 13:51 METAR KTEB 221851Z 02009G16KT 6SM -RA BKN020 OVC037 06/03 A3054 RMK AO2 SLP343
                 P0001 T00610028 =
2018-02-22 13:26 METAR KTEB 221826Z 35005KT 10SM -RA BKN020 OVC037 07/02 A3057 RMK AO2 P0001
                 T00670022 =
2018-02-22 12:51 METAR KTEB 221751Z VRB04KT 10SM -RA OVC037 07/01 A3055 RMK AO2 RAB49 SLP344
                 P0000 60006 T00720011 10072 20061 58022 =
2018-02-22 11:51 METAR KTEB 221651Z 04008KT 10SM OVC035 07/02 A3058 RMK AO2 RAB00E09 SLP354 P0000
                 T00720017 =
2018-02-22 10:51 METAR KTEB 221551Z 03007G16KT 10SM FEW037 OVC055 07/02 A3059 RMK AO2 RAE50
                 SLP359 P0000 T00670022 =
2018-02-22 09:51 METAR KTEB 221451Z 02006G17KT 10SM -RA FEW043 OVC055 07/02 A3061 RMK AO2
                 RAE27B47 SLP366 P0001 60006 T00670022 53026 =
2018-02-22 08:51 METAR KTEB 221351Z 01006KT 10SM -RA OVC050 07/02 A3058 RMK AO2 SLP354 P0004
                 T00670017 =
2018-02-22 07:51 METAR KTEB 221251Z 02011G22KT 3SM +RA OVC045 07/02 A3056 RMK AO2 RAB25 SLP347
                 P0001 T00670022 =

Support USWX by starting your Amazon purchase here.